createdAt,value
2022-09-24T00:02:12.555Z,593.63
2022-09-24T00:04:40.661Z,610.85
2022-09-24T00:07:08.867Z,620.30
2022-09-24T00:09:36.648Z,610.72
2022-09-24T00:12:04.588Z,604.85
2022-09-24T00:14:32.655Z,608.65
2022-09-24T00:17:02.096Z,597.60
2022-09-24T00:19:30.260Z,598.50
2022-09-24T00:21:58.212Z,611.78
2022-09-24T00:24:43.347Z,607.63
2022-09-24T00:27:11.737Z,594.75
2022-09-24T00:29:39.578Z,603.65
2022-09-24T00:32:10.803Z,600.80
2022-09-24T00:34:38.825Z,598.42
2022-09-24T00:37:06.905Z,598.40
2022-09-24T00:39:34.917Z,595.78
2022-09-24T00:42:03.009Z,601.05
2022-09-24T00:44:54.382Z,600.65
2022-09-24T00:47:31.144Z,602.30
2022-09-24T00:50:06.208Z,608.42
2022-09-24T00:52:34.529Z,600.05
2022-09-24T00:55:02.462Z,600.13
2022-09-24T00:57:30.610Z,595.15
2022-09-24T00:59:58.745Z,589.40
2022-09-24T01:02:28.116Z,592.75
2022-09-24T01:04:56.751Z,597.70
2022-09-24T01:07:25.497Z,603.47
2022-09-24T01:09:53.531Z,596.45
2022-09-24T01:12:28.335Z,597.65
2022-09-24T01:15:13.128Z,594.88
2022-09-24T01:17:47.871Z,595.75
2022-09-24T01:20:39.791Z,599.15
2022-09-24T01:23:19.285Z,600.28
2022-09-24T01:25:54.739Z,585.58
2022-09-24T01:28:33.861Z,588.65
2022-09-24T01:31:07.101Z,587.60
2022-09-24T01:33:35.680Z,583.90
2022-09-24T01:36:08.423Z,581.88
2022-09-24T01:38:39.859Z,595.28
2022-09-24T01:41:09.093Z,587.58
2022-09-24T01:43:39.199Z,582.50
2022-09-24T01:46:10.323Z,588.70
2022-09-24T01:48:38.705Z,598.47
2022-09-24T01:51:10.421Z,588.30
2022-09-24T01:53:42.645Z,596.15
2022-09-24T01:56:16.793Z,599.97
2022-09-24T01:58:48.864Z,590.55
2022-09-24T02:01:22.808Z,582.45
2022-09-24T02:03:54.719Z,582.38
2022-09-24T02:06:27.082Z,579.00
2022-09-24T02:08:59.367Z,575.78
2022-09-24T02:11:28.183Z,570.88
2022-09-24T02:13:58.411Z,574.03
2022-09-24T02:16:30.496Z,580.50
2022-09-24T02:19:01.700Z,578.97
2022-09-24T02:21:30.626Z,572.67
2022-09-24T02:24:02.849Z,582.85
2022-09-24T02:26:30.789Z,574.90
2022-09-24T02:28:59.423Z,595.40
2022-09-24T02:31:32.413Z,592.47
2022-09-24T02:34:18.068Z,587.35
2022-09-24T02:36:46.024Z,584.28
2022-09-24T02:39:14.017Z,584.15
2022-09-24T02:41:43.144Z,588.83
2022-09-24T02:44:11.001Z,587.10
2022-09-24T02:46:42.042Z,583.00
2022-09-24T02:49:10.235Z,575.38
2022-09-24T02:51:38.745Z,479.88
2022-09-24T02:54:06.991Z,538.78
2022-09-24T02:56:34.921Z,590.45
2022-09-24T02:59:03.348Z,595.10
2022-09-24T03:01:31.977Z,590.83
2022-09-24T03:04:01.468Z,604.53
2022-09-24T03:06:30.464Z,597.03
2022-09-24T03:08:58.481Z,588.47
2022-09-24T03:11:26.734Z,586.17
2022-09-24T03:13:54.698Z,596.33
2022-09-24T03:16:22.602Z,585.72
2022-09-24T03:18:50.621Z,577.05
2022-09-24T03:21:21.483Z,593.13
2022-09-24T03:23:49.661Z,590.75
2022-09-24T03:26:18.341Z,586.45
2022-09-24T03:28:46.196Z,579.50
2022-09-24T03:31:14.688Z,585.95
2022-09-24T03:33:44.648Z,581.63
2022-09-24T03:36:15.019Z,584.17
2022-09-24T03:38:45.651Z,583.80
2022-09-24T03:41:14.309Z,589.58
2022-09-24T03:43:42.668Z,586.45
2022-09-24T03:46:11.765Z,589.03
2022-09-24T03:48:41.169Z,585.58
2022-09-24T03:51:10.981Z,589.03
2022-09-24T03:53:39.237Z,594.10
2022-09-24T03:56:08.994Z,587.17
2022-09-24T03:58:38.986Z,591.13
2022-09-24T04:01:07.065Z,587.60
2022-09-24T04:03:35.998Z,588.65
2022-09-24T04:06:03.919Z,580.42
2022-09-24T04:08:32.567Z,581.58
2022-09-24T04:11:00.579Z,580.95
2022-09-24T04:13:29.901Z,580.42
2022-09-24T04:15:57.749Z,585.58
2022-09-24T04:18:25.852Z,583.28
2022-09-24T04:20:59.533Z,578.22
2022-09-24T04:23:27.896Z,583.45
2022-09-24T04:25:55.802Z,577.97
2022-09-24T04:28:24.398Z,588.05
2022-09-24T04:30:53.605Z,581.75
2022-09-24T04:33:21.686Z,602.53
2022-09-24T04:35:49.852Z,592.45
2022-09-24T04:38:18.732Z,588.63
2022-09-24T04:40:47.393Z,588.67
2022-09-24T04:43:15.412Z,600.15
2022-09-24T04:45:44.198Z,592.72
2022-09-24T04:48:13.693Z,575.83
2022-09-24T04:50:45.783Z,577.90
2022-09-24T04:53:14.514Z,593.20
2022-09-24T04:55:42.802Z,579.95
2022-09-24T04:58:11.246Z,580.05
2022-09-24T05:00:39.117Z,580.63
2022-09-24T05:03:10.477Z,580.55
2022-09-24T05:05:39.998Z,562.83
2022-09-24T05:08:07.856Z,552.20
2022-09-24T05:10:35.832Z,558.28
2022-09-24T05:13:03.640Z,560.95
2022-09-24T05:15:31.469Z,565.45
2022-09-24T05:17:59.811Z,574.40
2022-09-24T05:20:27.814Z,577.45
2022-09-24T05:22:57.085Z,581.40
2022-09-24T05:25:25.151Z,586.65
2022-09-24T05:27:53.694Z,591.92
2022-09-24T05:30:23.663Z,590.90
2022-09-24T05:32:52.463Z,595.58
2022-09-24T05:35:20.910Z,592.85
2022-09-24T05:37:49.696Z,591.35
2022-09-24T05:40:36.622Z,599.58
2022-09-24T05:43:05.009Z,592.72
2022-09-24T05:45:33.831Z,599.45
2022-09-24T05:48:02.262Z,593.58
2022-09-24T05:50:31.017Z,592.33
2022-09-24T05:52:59.006Z,612.08
2022-09-24T05:55:32.251Z,595.40
2022-09-24T05:58:04.714Z,598.47
2022-09-24T06:00:32.602Z,593.83
2022-09-24T06:03:06.745Z,596.20
2022-09-24T06:05:35.466Z,590.65
2022-09-24T06:08:04.020Z,598.22
2022-09-24T06:10:33.599Z,595.25
2022-09-24T06:13:01.673Z,608.40
2022-09-24T06:15:29.895Z,596.17
2022-09-24T06:17:58.155Z,603.15
2022-09-24T06:20:26.143Z,596.20
2022-09-24T06:22:57.460Z,596.83
2022-09-24T06:25:27.378Z,592.90
2022-09-24T06:28:00.426Z,588.72
2022-09-24T06:30:29.614Z,595.10
2022-09-24T06:33:03.245Z,592.75
2022-09-24T06:35:32.659Z,590.35
2022-09-24T06:38:02.668Z,588.60
2022-09-24T06:40:36.461Z,583.80
2022-09-24T06:43:08.252Z,594.08
2022-09-24T06:45:38.915Z,588.10
2022-09-24T06:48:07.173Z,580.03
2022-09-24T06:50:36.118Z,583.67
2022-09-24T06:53:06.633Z,588.47
2022-09-24T06:55:36.034Z,579.72
2022-09-24T06:58:07.872Z,584.90
2022-09-24T07:00:37.551Z,578.90
2022-09-24T07:03:05.953Z,591.72
2022-09-24T07:05:38.334Z,594.88
2022-09-24T07:08:09.178Z,591.25
2022-09-24T07:10:37.916Z,589.58
2022-09-24T07:13:07.429Z,595.03
2022-09-24T07:15:35.621Z,587.45
2022-09-24T07:18:03.638Z,583.72
2022-09-24T07:20:33.519Z,589.60
2022-09-24T07:23:01.677Z,590.25
2022-09-24T07:25:29.713Z,580.70
2022-09-24T07:27:57.731Z,555.22
2022-09-24T07:30:27.467Z,440.65
2022-09-24T07:32:56.423Z,451.02
2022-09-24T07:35:24.671Z,357.80
2022-09-24T07:37:58.614Z,331.35
2022-09-24T07:40:27.193Z,343.45
2022-09-24T07:42:55.661Z,329.80
2022-09-24T07:45:24.286Z,307.02
2022-09-24T07:48:01.234Z,343.80
2022-09-24T07:50:32.002Z,342.50
2022-09-24T07:53:00.739Z,345.88
2022-09-24T07:55:29.723Z,331.70
2022-09-24T07:57:59.931Z,342.83
2022-09-24T08:00:29.333Z,313.55
2022-09-24T08:02:57.441Z,314.83
2022-09-24T08:05:27.886Z,325.00
2022-09-24T08:07:59.778Z,304.30
2022-09-24T08:10:30.249Z,351.83
2022-09-24T08:13:03.389Z,337.23
2022-09-24T08:15:33.534Z,383.75
2022-09-24T08:18:03.393Z,387.95
2022-09-24T08:20:35.054Z,458.80
2022-09-24T08:23:04.699Z,483.58
2022-09-24T08:25:35.327Z,432.58
2022-09-24T08:28:05.147Z,416.60
2022-09-24T08:30:35.599Z,540.95
2022-09-24T08:33:07.009Z,513.05
2022-09-24T08:35:41.029Z,497.17
2022-09-24T08:38:12.360Z,498.88
2022-09-24T08:40:46.299Z,509.48
2022-09-24T08:43:25.051Z,563.13
2022-09-24T08:46:16.226Z,662.40
2022-09-24T08:48:47.637Z,608.88
2022-09-24T08:51:19.750Z,635.75
2022-09-24T08:53:51.927Z,696.60
2022-09-24T08:56:22.902Z,611.47
2022-09-24T08:58:54.271Z,635.65
2022-09-24T09:01:29.021Z,588.55
2022-09-24T09:04:03.548Z,687.90
2022-09-24T09:06:43.485Z,618.05
2022-09-24T09:09:14.325Z,615.88
2022-09-24T09:11:45.107Z,626.13
2022-09-24T09:14:17.679Z,640.67
2022-09-24T09:16:49.084Z,648.00
2022-09-24T09:19:18.414Z,641.45
2022-09-24T09:21:53.832Z,644.55
2022-09-24T09:24:23.436Z,647.78
2022-09-24T09:26:54.608Z,649.22
2022-09-24T09:29:24.250Z,636.67
2022-09-24T09:32:01.094Z,645.95
2022-09-24T09:34:39.215Z,641.95
2022-09-24T09:37:16.670Z,631.35
2022-09-24T09:39:52.064Z,652.00
2022-09-24T09:42:32.680Z,641.03
2022-09-24T09:45:02.695Z,632.30
2022-09-24T09:47:40.068Z,616.72
2022-09-24T09:50:15.066Z,622.20
2022-09-24T09:52:46.281Z,640.72
2022-09-24T09:55:23.532Z,640.20
2022-09-24T09:57:55.848Z,651.92
2022-09-24T10:00:30.546Z,643.42
2022-09-24T10:02:58.891Z,645.58
2022-09-24T10:05:28.893Z,645.25
2022-09-24T10:07:58.924Z,647.33
2022-09-24T10:10:28.073Z,641.35
2022-09-24T10:13:09.841Z,640.80
2022-09-24T10:15:45.428Z,658.80
2022-09-24T10:18:16.003Z,652.72
2022-09-24T10:20:48.277Z,654.78
2022-09-24T10:23:21.057Z,661.33
2022-09-24T10:25:53.410Z,661.08
2022-09-24T10:28:39.167Z,663.85
2022-09-24T10:31:12.684Z,649.20
2022-09-24T10:33:41.794Z,734.58
2022-09-24T10:36:16.016Z,660.10
2022-09-24T10:38:45.845Z,647.55
2022-09-24T10:41:18.330Z,651.55
2022-09-24T10:43:52.592Z,640.28
2022-09-24T10:46:46.059Z,644.78
2022-09-24T10:49:23.668Z,628.53
2022-09-24T10:51:58.912Z,640.92
2022-09-24T10:54:43.769Z,649.55
2022-09-24T10:57:19.760Z,646.95
2022-09-24T10:59:55.860Z,647.10
2022-09-24T11:02:47.117Z,651.78
2022-09-24T11:05:20.315Z,644.88
2022-09-24T11:07:59.529Z,641.92
2022-09-24T11:10:51.371Z,650.13
2022-09-24T11:13:26.335Z,639.88
2022-09-24T11:16:16.531Z,648.03
2022-09-24T11:18:53.347Z,640.70
2022-09-24T11:21:31.690Z,640.90
2022-09-24T11:24:19.415Z,645.03
2022-09-24T11:26:58.992Z,636.65
2022-09-24T11:29:37.175Z,633.88
2022-09-24T11:32:11.390Z,636.15
2022-09-24T11:34:52.211Z,646.08
2022-09-24T11:37:30.839Z,647.47
2022-09-24T11:40:06.997Z,639.88
2022-09-24T11:42:43.708Z,650.00
2022-09-24T11:45:23.480Z,645.70
2022-09-24T11:48:31.986Z,644.55
2022-09-24T11:51:07.717Z,645.22
2022-09-24T11:53:40.138Z,654.88
2022-09-24T11:56:13.753Z,647.20
2022-09-24T11:58:45.145Z,644.10
2022-09-24T12:01:16.552Z,643.42
2022-09-24T12:03:48.367Z,635.58
2022-09-24T12:06:18.473Z,635.20
2022-09-24T12:08:52.438Z,634.58
2022-09-24T12:11:24.585Z,638.63
2022-09-24T12:13:57.116Z,635.85
2022-09-24T12:16:28.235Z,641.42
2022-09-24T12:18:58.722Z,645.13
2022-09-24T12:21:30.750Z,645.60
2022-09-24T12:24:07.103Z,645.08
2022-09-24T12:26:37.605Z,652.33
2022-09-24T12:29:40.717Z,643.42
2022-09-24T12:32:33.889Z,632.47
2022-09-24T12:35:09.678Z,648.22
2022-09-24T12:37:41.551Z,636.17
2022-09-24T12:40:21.899Z,645.17
2022-09-24T12:42:51.674Z,640.33
2022-09-24T12:45:22.741Z,644.92
2022-09-24T12:47:53.487Z,644.35
2022-09-24T12:50:23.917Z,632.95
2022-09-24T12:52:52.208Z,633.15
2022-09-24T12:55:22.522Z,638.08
2022-09-24T12:57:56.513Z,638.00
2022-09-24T13:00:43.452Z,643.08
2022-09-24T13:03:31.764Z,651.13
2022-09-24T13:06:00.402Z,635.17
2022-09-24T13:08:36.939Z,635.78
2022-09-24T13:11:23.449Z,630.20
2022-09-24T13:13:59.886Z,629.35
2022-09-24T13:16:29.686Z,633.70
2022-09-24T13:19:01.310Z,630.15
2022-09-24T13:21:30.546Z,629.60
2022-09-24T13:23:58.696Z,614.35
2022-09-24T13:26:35.019Z,617.60
2022-09-24T13:29:05.677Z,624.17
2022-09-24T13:31:41.357Z,615.55
2022-09-24T13:34:17.588Z,601.65
2022-09-24T13:36:48.889Z,611.13
2022-09-24T13:39:21.491Z,607.30
2022-09-24T13:41:56.440Z,594.33
2022-09-24T13:44:28.897Z,592.65
2022-09-24T13:47:03.316Z,601.20
2022-09-24T13:49:32.086Z,603.45
2022-09-24T13:52:10.110Z,601.70
2022-09-24T13:54:46.863Z,602.10
2022-09-24T13:57:22.211Z,607.95
2022-09-24T13:59:50.001Z,612.15
2022-09-24T14:02:27.932Z,614.50
2022-09-24T14:04:57.500Z,614.80
2022-09-24T14:07:26.128Z,616.80
2022-09-24T14:10:04.787Z,625.20
2022-09-24T14:12:32.621Z,625.47
2022-09-24T14:15:00.434Z,631.03
2022-09-24T14:17:29.643Z,628.72
2022-09-24T14:19:58.097Z,613.85
2022-09-24T14:22:29.208Z,616.42
2022-09-24T14:24:59.413Z,619.83
2022-09-24T14:27:27.590Z,619.97
2022-09-24T14:29:57.249Z,623.28
2022-09-24T14:32:30.294Z,620.92
2022-09-24T14:34:59.860Z,623.53
2022-09-24T14:37:31.412Z,619.45
2022-09-24T14:40:02.984Z,631.20
2022-09-24T14:42:34.106Z,622.83
2022-09-24T14:45:04.352Z,622.30
2022-09-24T14:47:35.340Z,616.22
2022-09-24T14:50:04.253Z,605.80
2022-09-24T14:52:33.837Z,608.78
2022-09-24T14:55:14.377Z,604.15
2022-09-24T14:57:47.555Z,618.05
2022-09-24T15:00:24.396Z,618.88
2022-09-24T15:02:58.581Z,623.17
2022-09-24T15:05:27.358Z,623.97
2022-09-24T15:08:11.129Z,631.03
2022-09-24T15:10:39.975Z,631.45
2022-09-24T15:13:15.446Z,636.08
2022-09-24T15:15:43.319Z,626.00
2022-09-24T15:18:17.176Z,635.50
2022-09-24T15:20:45.581Z,623.88
2022-09-24T15:23:13.677Z,627.58
2022-09-24T15:25:43.579Z,628.22
2022-09-24T15:28:13.648Z,626.15
2022-09-24T15:30:42.126Z,619.88
2022-09-24T15:33:13.483Z,623.38
2022-09-24T15:35:41.852Z,631.10
2022-09-24T15:38:14.879Z,632.88
2022-09-24T15:40:43.594Z,622.60
2022-09-24T15:43:20.428Z,631.40
2022-09-24T15:45:48.243Z,621.53
2022-09-24T15:48:17.905Z,606.65
2022-09-24T15:50:47.034Z,619.08
2022-09-24T15:53:19.774Z,617.75
2022-09-24T15:55:49.604Z,617.17
2022-09-24T15:58:19.579Z,615.20
2022-09-24T16:00:47.697Z,621.45
2022-09-24T16:03:20.782Z,631.08
2022-09-24T16:05:48.998Z,619.83
2022-09-24T16:08:17.206Z,621.50
2022-09-24T16:10:45.855Z,622.97
2022-09-24T16:13:14.547Z,632.83
2022-09-24T16:15:42.619Z,626.03
2022-09-24T16:18:11.771Z,619.42
2022-09-24T16:20:41.416Z,626.80
2022-09-24T16:23:14.267Z,620.90
2022-09-24T16:25:43.118Z,611.83
2022-09-24T16:28:10.913Z,623.38
2022-09-24T16:30:39.330Z,616.83
2022-09-24T16:33:07.285Z,611.67
2022-09-24T16:35:35.454Z,614.85
2022-09-24T16:38:04.840Z,613.63
2022-09-24T16:40:32.943Z,618.10
2022-09-24T16:43:01.571Z,619.33
2022-09-24T16:45:29.338Z,622.47
2022-09-24T16:47:57.169Z,610.65
2022-09-24T16:50:24.948Z,619.20
2022-09-24T16:52:55.046Z,616.17
2022-09-24T16:55:25.200Z,612.25
2022-09-24T16:57:53.426Z,589.10
2022-09-24T17:00:21.526Z,591.83
2022-09-24T17:02:49.358Z,604.65
2022-09-24T17:05:17.361Z,590.50
2022-09-24T17:07:45.465Z,603.88
2022-09-24T17:10:16.136Z,614.60
2022-09-24T17:12:47.218Z,615.30
2022-09-24T17:15:16.440Z,614.05
2022-09-24T17:17:49.419Z,620.28
2022-09-24T17:20:18.604Z,638.58
2022-09-24T17:22:48.204Z,622.70
2022-09-24T17:25:16.220Z,621.92
2022-09-24T17:27:45.804Z,619.70
2022-09-24T17:30:14.390Z,607.20
2022-09-24T17:32:42.441Z,728.53
2022-09-24T17:35:10.662Z,616.13
2022-09-24T17:37:41.139Z,634.50
2022-09-24T17:40:11.145Z,619.25
2022-09-24T17:42:44.485Z,624.85
2022-09-24T17:45:13.922Z,690.95
2022-09-24T17:48:00.600Z,626.05
2022-09-24T17:50:29.795Z,631.17
2022-09-24T17:52:58.813Z,628.47
2022-09-24T17:55:27.353Z,632.40
2022-09-24T17:57:55.139Z,621.28
2022-09-24T18:00:24.293Z,620.20
2022-09-24T18:02:55.288Z,624.63
2022-09-24T18:05:23.180Z,616.92
2022-09-24T18:07:53.432Z,622.45
2022-09-24T18:10:21.255Z,615.70
2022-09-24T18:12:49.012Z,621.58
2022-09-24T18:15:17.123Z,627.60
2022-09-24T18:17:46.326Z,623.25
2022-09-24T18:20:14.570Z,620.90
2022-09-24T18:22:42.365Z,626.97
2022-09-24T18:25:11.459Z,626.28
2022-09-24T18:27:39.428Z,622.85
2022-09-24T18:30:11.049Z,623.60
2022-09-24T18:32:39.528Z,611.78
2022-09-24T18:35:10.068Z,609.10
2022-09-24T18:37:38.086Z,609.78
2022-09-24T18:40:06.906Z,600.95
2022-09-24T18:42:35.289Z,611.83
2022-09-24T18:45:03.333Z,601.85
2022-09-24T18:47:31.397Z,624.22
2022-09-24T18:49:59.336Z,607.97
2022-09-24T18:52:28.882Z,609.10
2022-09-24T18:54:57.940Z,614.65
2022-09-24T18:57:25.713Z,622.60
2022-09-24T18:59:55.475Z,622.88
2022-09-24T19:02:27.561Z,625.80
2022-09-24T19:04:59.319Z,625.67
2022-09-24T19:07:28.702Z,625.75
2022-09-24T19:09:56.519Z,618.90
2022-09-24T19:12:26.087Z,614.17
2022-09-24T19:14:54.336Z,617.17
2022-09-24T19:17:22.300Z,622.88
2022-09-24T19:19:52.436Z,619.58
2022-09-24T19:22:20.533Z,622.22
2022-09-24T19:24:52.237Z,622.35
2022-09-24T19:27:20.029Z,631.45
2022-09-24T19:29:47.904Z,620.40
2022-09-24T19:32:18.247Z,615.33
2022-09-24T19:34:58.138Z,622.97
2022-09-24T19:37:26.273Z,623.45
2022-09-24T19:39:55.417Z,617.47
2022-09-24T19:42:26.702Z,609.38
2022-09-24T19:45:07.251Z,603.40
2022-09-24T19:47:36.693Z,596.10
2022-09-24T19:50:05.032Z,614.08
2022-09-24T19:52:34.120Z,621.67
2022-09-24T19:55:03.300Z,599.90
2022-09-24T19:57:33.584Z,618.05
2022-09-24T20:00:05.442Z,616.17
2022-09-24T20:02:34.803Z,616.15
2022-09-24T20:05:05.405Z,619.40
2022-09-24T20:07:33.543Z,614.78
2022-09-24T20:10:01.609Z,610.95
2022-09-24T20:12:30.921Z,612.70
2022-09-24T20:14:58.733Z,618.00
2022-09-24T20:17:26.569Z,612.03
2022-09-24T20:19:54.441Z,627.45
2022-09-24T20:22:22.245Z,623.42
2022-09-24T20:24:50.337Z,624.50
2022-09-24T20:27:35.605Z,621.10
2022-09-24T20:30:05.336Z,613.35
2022-09-24T20:32:33.805Z,605.70
2022-09-24T20:35:01.644Z,599.58
2022-09-24T20:37:29.606Z,595.90
2022-09-24T20:39:57.742Z,595.83
2022-09-24T20:42:25.714Z,599.03
2022-09-24T20:44:56.186Z,591.85
2022-09-24T20:47:26.107Z,608.97
2022-09-24T20:49:54.398Z,611.13
2022-09-24T20:52:22.397Z,614.72
2022-09-24T20:54:50.245Z,628.47
2022-09-24T20:57:20.471Z,619.40
2022-09-24T20:59:49.139Z,618.67
2022-09-24T21:02:17.015Z,610.78
2022-09-24T21:04:46.324Z,608.97
2022-09-24T21:07:14.489Z,614.08
2022-09-24T21:09:42.438Z,613.53
2022-09-24T21:12:10.336Z,604.05
2022-09-24T21:14:38.149Z,607.03
2022-09-24T21:17:05.941Z,630.63
2022-09-24T21:19:35.690Z,614.03
2022-09-24T21:22:06.114Z,614.15
2022-09-24T21:24:34.897Z,616.65
2022-09-24T21:27:05.295Z,610.55
2022-09-24T21:29:33.039Z,613.05
2022-09-24T21:32:01.002Z,609.35
2022-09-24T21:34:29.105Z,612.53
2022-09-24T21:36:56.963Z,610.35
2022-09-24T21:39:28.947Z,612.47
2022-09-24T21:41:59.414Z,614.05
2022-09-24T21:44:30.398Z,614.95
2022-09-24T21:46:58.461Z,616.13
2022-09-24T21:49:26.270Z,614.00
2022-09-24T21:51:55.674Z,615.30
2022-09-24T21:54:23.727Z,619.72
2022-09-24T21:56:54.423Z,614.15
2022-09-24T21:59:39.758Z,616.17
2022-09-24T22:02:08.706Z,613.70
2022-09-24T22:04:37.295Z,616.05
2022-09-24T22:07:05.263Z,624.55
2022-09-24T22:09:33.686Z,620.67
2022-09-24T22:12:04.490Z,621.42
2022-09-24T22:14:34.610Z,623.75
2022-09-24T22:17:03.113Z,626.95
2022-09-24T22:19:31.333Z,619.45
2022-09-24T22:21:59.518Z,622.15
2022-09-24T22:24:27.895Z,620.63
2022-09-24T22:26:55.679Z,629.00
2022-09-24T22:29:24.805Z,618.60
2022-09-24T22:31:52.840Z,625.13
2022-09-24T22:34:37.981Z,622.65
2022-09-24T22:37:06.987Z,621.70
2022-09-24T22:39:35.713Z,625.45
2022-09-24T22:42:03.513Z,623.20
2022-09-24T22:44:32.657Z,621.67
2022-09-24T22:47:00.523Z,607.97
2022-09-24T22:49:29.196Z,622.70
2022-09-24T22:51:57.049Z,617.10
2022-09-24T22:54:25.426Z,618.85
2022-09-24T22:56:53.221Z,615.22
2022-09-24T22:59:21.064Z,610.80
2022-09-24T23:01:50.263Z,619.58
2022-09-24T23:04:18.151Z,614.72
2022-09-24T23:06:46.069Z,618.88
2022-09-24T23:09:14.541Z,624.45
2022-09-24T23:11:42.439Z,623.58
2022-09-24T23:14:13.599Z,618.10
2022-09-24T23:16:42.747Z,620.38
2022-09-24T23:19:15.867Z,614.63
2022-09-24T23:21:44.012Z,626.10
2022-09-24T23:24:15.063Z,621.90
2022-09-24T23:26:43.013Z,629.20
2022-09-24T23:29:11.117Z,613.13
2022-09-24T23:31:38.907Z,620.20
2022-09-24T23:34:08.078Z,619.15
2022-09-24T23:36:37.826Z,623.65
2022-09-24T23:39:06.874Z,626.15
2022-09-24T23:41:34.865Z,630.33
2022-09-24T23:44:03.133Z,622.25
2022-09-24T23:46:33.766Z,631.97
2022-09-24T23:49:01.801Z,635.85
2022-09-24T23:51:29.657Z,640.60
2022-09-24T23:53:59.205Z,638.13
2022-09-24T23:56:28.385Z,632.53
2022-09-24T23:58:57.822Z,635.47
